createdAt,value
2023-12-08T00:01:10.855Z,2.28
2023-12-08T00:03:37.508Z,2.29
2023-12-08T00:06:04.112Z,2.29
2023-12-08T00:08:31.190Z,2.30
2023-12-08T00:10:57.595Z,2.30
2023-12-08T00:13:26.800Z,2.30
2023-12-08T00:15:53.270Z,2.30
2023-12-08T00:18:19.762Z,2.32
2023-12-08T00:20:46.203Z,2.30
2023-12-08T00:23:12.747Z,2.31
2023-12-08T00:25:39.200Z,2.32
2023-12-08T00:28:09.583Z,2.32
2023-12-08T00:30:36.395Z,2.32
2023-12-08T00:33:05.766Z,2.31
2023-12-08T00:35:33.618Z,2.32
2023-12-08T00:38:00.224Z,2.33
2023-12-08T00:40:27.040Z,2.33
2023-12-08T00:42:53.512Z,2.33
2023-12-08T00:45:20.572Z,2.35
2023-12-08T00:47:47.247Z,2.34
2023-12-08T00:50:13.751Z,2.35
2023-12-08T00:52:40.256Z,2.34
2023-12-08T00:55:09.270Z,2.34
2023-12-08T00:57:35.752Z,2.35
2023-12-08T01:00:02.329Z,2.35
2023-12-08T01:02:30.073Z,2.36
2023-12-08T01:04:58.416Z,2.34
2023-12-08T01:07:25.344Z,2.35
2023-12-08T01:09:51.998Z,2.34
2023-12-08T01:12:18.477Z,2.34
2023-12-08T01:14:44.889Z,2.36
2023-12-08T01:17:11.437Z,2.34
2023-12-08T01:19:38.021Z,2.36
2023-12-08T01:22:04.698Z,2.35
2023-12-08T01:24:31.084Z,2.35
2023-12-08T01:26:57.562Z,2.37
2023-12-08T01:29:24.092Z,2.36
2023-12-08T01:31:50.525Z,2.38
2023-12-08T01:34:17.463Z,2.39
2023-12-08T01:36:44.627Z,2.39
2023-12-08T01:39:11.915Z,2.38
2023-12-08T01:41:38.600Z,2.37
2023-12-08T01:44:05.279Z,2.39
2023-12-08T01:46:31.810Z,2.39
2023-12-08T01:49:02.441Z,2.39
2023-12-08T01:51:29.122Z,2.40
2023-12-08T01:53:56.156Z,2.40
2023-12-08T01:56:23.198Z,2.41
2023-12-08T01:58:49.815Z,2.42
2023-12-08T02:01:16.746Z,2.43
2023-12-08T02:03:45.758Z,2.43
2023-12-08T02:06:12.472Z,2.44
2023-12-08T02:08:39.168Z,2.43
2023-12-08T02:11:07.004Z,2.44
2023-12-08T02:13:34.157Z,2.47
2023-12-08T02:16:10.789Z,2.47
2023-12-08T02:18:39.716Z,2.48
2023-12-08T02:21:09.808Z,2.49
2023-12-08T02:23:37.090Z,2.49
2023-12-08T02:26:08.240Z,2.51
2023-12-08T02:28:34.689Z,2.51
2023-12-08T02:31:04.090Z,2.52
2023-12-08T02:33:31.645Z,2.52
2023-12-08T02:36:01.162Z,2.52
2023-12-08T02:38:27.821Z,2.52
2023-12-08T02:40:55.882Z,2.51
2023-12-08T02:43:22.318Z,2.51
2023-12-08T02:45:51.742Z,2.50
2023-12-08T02:48:21.143Z,2.47
2023-12-08T02:50:47.725Z,2.47
2023-12-08T02:53:14.213Z,2.45
2023-12-08T02:55:40.655Z,2.44
2023-12-08T02:58:07.171Z,2.43
2023-12-08T03:00:33.653Z,2.42
2023-12-08T03:03:00.348Z,2.39
2023-12-08T03:05:29.872Z,2.36
2023-12-08T03:07:56.307Z,2.34
2023-12-08T03:10:22.739Z,2.33
2023-12-08T03:12:49.520Z,2.33
2023-12-08T03:15:16.191Z,2.31
2023-12-08T03:17:45.788Z,2.30
2023-12-08T03:20:12.461Z,2.29
2023-12-08T03:22:41.779Z,2.27
2023-12-08T03:25:08.648Z,2.28
2023-12-08T03:27:35.150Z,2.29
2023-12-08T03:30:01.791Z,2.27
2023-12-08T03:32:28.359Z,2.26
2023-12-08T03:34:54.777Z,2.27
2023-12-08T03:37:21.285Z,2.26
2023-12-08T03:39:47.909Z,2.26
2023-12-08T03:42:14.503Z,2.23
2023-12-08T03:44:41.160Z,2.25
2023-12-08T03:47:07.620Z,2.25
2023-12-08T03:49:34.220Z,2.22
2023-12-08T03:52:00.738Z,2.23
2023-12-08T03:54:27.652Z,2.23
2023-12-08T03:56:54.135Z,2.20
2023-12-08T03:59:20.618Z,2.19
2023-12-08T04:01:46.991Z,2.18
2023-12-08T04:04:25.341Z,2.18
2023-12-08T04:06:53.646Z,2.18
2023-12-08T04:09:23.607Z,2.15
2023-12-08T04:11:50.790Z,2.17
2023-12-08T04:14:17.258Z,2.15
2023-12-08T04:16:51.245Z,2.15
2023-12-08T04:19:19.731Z,2.16
2023-12-08T04:21:46.545Z,2.15
2023-12-08T04:24:13.346Z,2.16
2023-12-08T04:26:46.120Z,2.16
2023-12-08T04:29:12.856Z,2.15
2023-12-08T04:31:39.498Z,2.17
2023-12-08T04:34:06.123Z,2.17
2023-12-08T04:36:32.600Z,2.16
2023-12-08T04:38:59.138Z,2.16
2023-12-08T04:41:25.758Z,2.17
2023-12-08T04:43:52.353Z,2.18
2023-12-08T04:46:21.311Z,2.19
2023-12-08T04:48:48.393Z,2.17
2023-12-08T04:51:15.065Z,2.17
2023-12-08T04:53:41.643Z,2.18
2023-12-08T04:56:08.791Z,2.19
2023-12-08T04:58:35.189Z,2.18
2023-12-08T05:01:01.655Z,2.19
2023-12-08T05:03:28.114Z,2.18
2023-12-08T05:05:54.673Z,2.19
2023-12-08T05:08:21.116Z,2.19
2023-12-08T05:10:47.525Z,2.20
2023-12-08T05:13:14.000Z,2.21
2023-12-08T05:15:40.448Z,2.23
2023-12-08T05:18:07.180Z,2.21
2023-12-08T05:20:34.914Z,2.22
2023-12-08T05:23:01.382Z,2.23
2023-12-08T05:25:27.848Z,2.25
2023-12-08T05:27:54.266Z,2.23
2023-12-08T05:30:20.757Z,2.25
2023-12-08T05:32:47.521Z,2.25
2023-12-08T05:35:14.678Z,2.27
2023-12-08T05:37:41.073Z,2.26
2023-12-08T05:40:08.426Z,2.27
2023-12-08T05:42:34.787Z,2.26
2023-12-08T05:45:01.418Z,2.28
2023-12-08T05:47:28.050Z,2.28
2023-12-08T05:49:54.544Z,2.28
2023-12-08T05:52:20.993Z,2.28
2023-12-08T05:54:47.491Z,2.30
2023-12-08T05:57:17.389Z,2.31
2023-12-08T05:59:43.922Z,2.30
2023-12-08T06:02:10.581Z,2.32
2023-12-08T06:04:37.022Z,2.32
2023-12-08T06:07:05.101Z,2.32
2023-12-08T06:09:31.670Z,2.34
2023-12-08T06:11:58.139Z,2.36
2023-12-08T06:14:24.600Z,2.36
2023-12-08T06:16:51.074Z,2.36
2023-12-08T06:19:18.156Z,2.39
2023-12-08T06:21:44.684Z,2.38
2023-12-08T06:24:11.279Z,2.40
2023-12-08T06:26:39.402Z,2.38
2023-12-08T06:29:05.954Z,2.38
2023-12-08T06:31:32.519Z,2.39
2023-12-08T06:34:09.364Z,2.40
2023-12-08T06:37:02.936Z,2.42
2023-12-08T06:39:32.117Z,2.43
2023-12-08T06:41:58.719Z,2.44
2023-12-08T06:44:28.907Z,2.44
2023-12-08T06:46:55.366Z,2.47
2023-12-08T06:49:21.906Z,2.46
2023-12-08T06:51:48.541Z,2.48
2023-12-08T06:54:14.985Z,2.48
2023-12-08T06:56:43.287Z,2.49
2023-12-08T06:59:10.221Z,2.49
2023-12-08T07:01:37.648Z,2.49
2023-12-08T07:04:09.669Z,2.52
2023-12-08T07:06:36.304Z,2.54
2023-12-08T07:09:06.097Z,2.57
2023-12-08T07:11:35.163Z,2.58
2023-12-08T07:14:01.662Z,2.58
2023-12-08T07:16:28.614Z,2.59
2023-12-08T07:18:57.253Z,2.59
2023-12-08T07:21:24.804Z,2.60
2023-12-08T07:23:51.354Z,2.60
2023-12-08T07:26:17.920Z,2.62
2023-12-08T07:28:44.320Z,2.62
2023-12-08T07:31:10.997Z,2.63
2023-12-08T07:33:37.582Z,2.65
2023-12-08T07:36:05.791Z,2.65
2023-12-08T07:38:32.222Z,2.66
2023-12-08T07:40:59.691Z,2.65
2023-12-08T07:43:26.117Z,2.64
2023-12-08T07:45:55.186Z,2.64
2023-12-08T07:48:24.124Z,2.66
2023-12-08T07:50:50.884Z,2.65
2023-12-08T07:53:17.476Z,2.66
2023-12-08T07:55:43.979Z,2.68
2023-12-08T07:58:10.477Z,2.68
2023-12-08T08:00:38.512Z,2.68
2023-12-08T08:03:07.876Z,2.70
2023-12-08T08:05:34.422Z,2.71
2023-12-08T08:08:00.892Z,2.72
2023-12-08T08:10:28.244Z,2.72
2023-12-08T08:12:57.670Z,2.72
2023-12-08T08:15:24.166Z,2.73
2023-12-08T08:17:50.947Z,2.75
2023-12-08T08:20:17.456Z,2.75
2023-12-08T08:22:54.439Z,2.76
2023-12-08T08:25:21.081Z,2.77
2023-12-08T08:27:47.623Z,2.78
2023-12-08T08:30:14.293Z,2.79
2023-12-08T08:32:40.798Z,2.81
2023-12-08T08:35:09.311Z,2.80
2023-12-08T08:37:35.860Z,2.82
2023-12-08T08:40:03.581Z,2.85
2023-12-08T08:42:30.064Z,2.85
2023-12-08T08:44:56.599Z,2.88
2023-12-08T08:47:23.166Z,2.89
2023-12-08T08:49:50.490Z,2.90
2023-12-08T08:52:17.153Z,2.91
2023-12-08T08:54:43.747Z,2.94
2023-12-08T08:57:12.673Z,2.95
2023-12-08T08:59:41.662Z,2.96
2023-12-08T09:02:08.567Z,3.01
2023-12-08T09:04:35.062Z,2.99
2023-12-08T09:07:01.713Z,3.02
2023-12-08T09:09:30.710Z,3.03
2023-12-08T09:11:57.346Z,3.04
2023-12-08T09:14:23.827Z,3.05
2023-12-08T09:16:50.308Z,3.07
2023-12-08T09:19:16.846Z,3.09
2023-12-08T09:21:52.119Z,3.09
2023-12-08T09:24:24.047Z,3.13
2023-12-08T09:26:50.573Z,3.15
2023-12-08T09:29:19.739Z,3.16
2023-12-08T09:31:46.493Z,3.17
2023-12-08T09:34:13.192Z,3.20
2023-12-08T09:36:39.877Z,3.23
2023-12-08T09:39:06.519Z,3.23
2023-12-08T09:41:33.129Z,3.26
2023-12-08T09:44:05.884Z,3.28
2023-12-08T09:46:34.258Z,3.31
2023-12-08T09:49:16.885Z,3.34
2023-12-08T09:51:47.531Z,3.36
2023-12-08T09:54:13.976Z,3.39
2023-12-08T09:56:40.504Z,3.42
2023-12-08T09:59:11.495Z,3.44
2023-12-08T10:01:38.103Z,3.45
2023-12-08T10:04:05.511Z,3.47
2023-12-08T10:06:36.314Z,3.49
2023-12-08T10:09:07.663Z,3.51
2023-12-08T10:11:34.819Z,3.52
2023-12-08T10:14:01.734Z,3.53
2023-12-08T10:16:31.319Z,3.54
2023-12-08T10:19:08.747Z,3.55
2023-12-08T10:21:38.484Z,3.56
2023-12-08T10:24:06.037Z,3.60
2023-12-08T10:26:36.083Z,3.61
2023-12-08T10:29:02.580Z,3.66
2023-12-08T10:31:29.318Z,3.68
2023-12-08T10:33:57.051Z,3.72
2023-12-08T10:36:26.632Z,3.73
2023-12-08T10:38:56.242Z,3.75
2023-12-08T10:41:23.482Z,3.80
2023-12-08T10:43:50.063Z,3.85
2023-12-08T10:46:36.097Z,3.88
2023-12-08T10:49:05.148Z,3.90
2023-12-08T10:51:34.408Z,3.95
2023-12-08T10:54:00.804Z,3.97
2023-12-08T10:56:27.453Z,4.00
2023-12-08T10:59:04.119Z,4.02
2023-12-08T11:01:34.359Z,4.06
2023-12-08T11:04:06.877Z,4.07
2023-12-08T11:06:43.987Z,4.11
2023-12-08T11:09:13.512Z,4.13
2023-12-08T11:11:51.036Z,4.16
2023-12-08T11:14:29.870Z,4.17
2023-12-08T11:17:01.545Z,4.18
2023-12-08T11:19:30.672Z,4.22
2023-12-08T11:21:57.602Z,4.27
2023-12-08T11:24:26.378Z,4.33
2023-12-08T11:27:11.372Z,4.35
2023-12-08T11:29:55.939Z,4.39
2023-12-08T11:32:36.969Z,4.43
2023-12-08T11:35:11.168Z,4.47
2023-12-08T11:37:39.138Z,4.51
2023-12-08T11:40:12.733Z,4.55
2023-12-08T11:42:44.328Z,4.60
2023-12-08T11:45:14.817Z,4.62
2023-12-08T11:47:44.513Z,4.66
2023-12-08T11:50:12.886Z,4.67
2023-12-08T11:52:42.417Z,4.73
2023-12-08T11:55:31.263Z,4.75
2023-12-08T11:58:04.880Z,4.80
2023-12-08T12:00:34.326Z,4.82
2023-12-08T12:03:03.398Z,4.85
2023-12-08T12:05:30.291Z,4.89
2023-12-08T12:07:58.656Z,4.92
2023-12-08T12:10:31.767Z,4.94
2023-12-08T12:13:04.267Z,4.96
2023-12-08T12:15:32.264Z,4.99
2023-12-08T12:18:00.051Z,5.04
2023-12-08T12:20:29.732Z,5.09
2023-12-08T12:22:57.142Z,5.18
2023-12-08T12:25:26.552Z,5.21
2023-12-08T12:27:54.849Z,5.24
2023-12-08T12:30:21.877Z,5.29
2023-12-08T12:32:50.341Z,5.35
2023-12-08T12:35:17.747Z,5.40
2023-12-08T12:37:44.774Z,5.44
2023-12-08T12:40:12.367Z,5.48
2023-12-08T12:42:53.521Z,5.51
2023-12-08T12:45:32.421Z,5.55
2023-12-08T12:48:01.092Z,5.61
2023-12-08T12:50:33.673Z,5.66
2023-12-08T12:53:25.674Z,5.69
2023-12-08T12:55:52.975Z,5.71
2023-12-08T13:01:22.631Z,5.77
2023-12-08T13:03:49.645Z,5.78
2023-12-08T13:06:37.703Z,5.84
2023-12-08T13:09:06.619Z,5.87
2023-12-08T13:11:38.724Z,5.89
2023-12-08T13:14:05.297Z,5.91
2023-12-08T13:16:33.874Z,5.93
2023-12-08T13:19:01.221Z,5.96
2023-12-08T13:21:28.110Z,5.97
2023-12-08T13:23:54.734Z,5.99
2023-12-08T13:26:21.243Z,6.00
2023-12-08T13:28:47.634Z,6.02
2023-12-08T13:31:32.221Z,6.02
2023-12-08T13:34:02.558Z,6.07
2023-12-08T13:36:29.673Z,6.10
2023-12-08T13:38:56.322Z,6.14
2023-12-08T13:41:26.290Z,6.17
2023-12-08T13:43:52.676Z,6.22
2023-12-08T13:46:20.718Z,6.29
2023-12-08T13:48:57.679Z,6.34
2023-12-08T13:51:38.392Z,6.35
2023-12-08T13:54:09.337Z,6.40
2023-12-08T13:56:35.868Z,6.43
2023-12-08T13:59:02.281Z,6.46
2023-12-08T14:01:29.377Z,6.54
2023-12-08T14:03:56.419Z,6.55
2023-12-08T14:06:24.637Z,6.60
2023-12-08T14:08:54.199Z,6.63
2023-12-08T14:11:25.972Z,6.64
2023-12-08T14:13:55.704Z,6.66
2023-12-08T14:16:22.223Z,6.68
2023-12-08T14:18:48.843Z,6.68
2023-12-08T14:21:16.434Z,6.69
2023-12-08T14:23:43.744Z,6.70
2023-12-08T14:26:12.960Z,6.71
2023-12-08T14:28:39.674Z,6.73
2023-12-08T14:31:09.133Z,6.77
2023-12-08T14:33:35.670Z,6.80
2023-12-08T14:36:02.781Z,6.85
2023-12-08T14:38:29.533Z,6.86
2023-12-08T14:40:56.568Z,6.87
2023-12-08T14:43:25.033Z,6.89
2023-12-08T14:45:52.695Z,6.91
2023-12-08T14:48:23.597Z,6.92
2023-12-08T14:50:50.703Z,6.93
2023-12-08T14:53:17.272Z,6.94
2023-12-08T14:55:58.797Z,6.96
2023-12-08T14:58:27.579Z,6.96
2023-12-08T15:00:54.293Z,6.98
2023-12-08T15:03:20.988Z,7.00
2023-12-08T15:05:49.560Z,7.03
2023-12-08T15:08:17.373Z,7.04
2023-12-08T15:10:43.919Z,7.06
2023-12-08T15:13:13.843Z,7.05
2023-12-08T15:15:46.025Z,7.02
2023-12-08T15:18:16.101Z,7.05
2023-12-08T15:20:50.579Z,7.06
2023-12-08T15:23:19.008Z,7.07
2023-12-08T15:25:45.549Z,7.10
2023-12-08T15:28:12.890Z,7.09
2023-12-08T15:30:39.409Z,7.12
2023-12-08T15:33:12.421Z,7.14
2023-12-08T15:35:44.423Z,7.14
2023-12-08T15:38:10.861Z,7.14
2023-12-08T15:40:37.748Z,7.15
2023-12-08T15:43:06.551Z,7.15
2023-12-08T15:45:33.127Z,7.15
2023-12-08T15:48:14.143Z,7.12
2023-12-08T15:50:46.906Z,7.09
2023-12-08T15:53:13.334Z,7.09
2023-12-08T15:55:39.780Z,7.08
2023-12-08T15:58:06.306Z,7.09
2023-12-08T16:00:35.523Z,7.08
2023-12-08T16:03:02.132Z,7.11
2023-12-08T16:05:28.899Z,7.10
2023-12-08T16:07:55.487Z,7.13
2023-12-08T16:10:21.894Z,7.13
2023-12-08T16:12:48.500Z,7.13
2023-12-08T16:15:15.043Z,7.12
2023-12-08T16:17:41.583Z,7.13
2023-12-08T16:20:09.384Z,7.13
2023-12-08T16:22:35.981Z,7.15
2023-12-08T16:25:03.350Z,7.20
2023-12-08T16:27:30.272Z,7.21
2023-12-08T16:29:57.491Z,7.20
2023-12-08T16:32:24.825Z,7.19
2023-12-08T16:35:09.986Z,7.21
2023-12-08T16:37:37.011Z,7.23
2023-12-08T16:40:04.168Z,7.23
2023-12-08T16:42:30.939Z,7.25
2023-12-08T16:45:12.212Z,7.26
2023-12-08T16:47:46.135Z,7.29
2023-12-08T16:50:12.687Z,7.30
2023-12-08T16:52:39.178Z,7.31
2023-12-08T16:55:06.604Z,7.33
2023-12-08T16:57:33.128Z,7.33
2023-12-08T16:59:59.895Z,7.33
2023-12-08T17:02:28.083Z,7.35
2023-12-08T17:04:54.698Z,7.36
2023-12-08T17:07:21.482Z,7.37
2023-12-08T17:09:47.864Z,7.39
2023-12-08T17:12:14.590Z,7.39
2023-12-08T17:14:40.990Z,7.38
2023-12-08T17:17:10.515Z,7.38
2023-12-08T17:19:43.982Z,7.38
2023-12-08T17:22:10.606Z,7.37
2023-12-08T17:24:37.020Z,7.37
2023-12-08T17:27:03.828Z,7.37
2023-12-08T17:29:30.288Z,7.39
2023-12-08T17:31:57.082Z,7.42
2023-12-08T17:37:25.877Z,7.42
2023-12-08T17:39:52.436Z,7.44
2023-12-08T17:45:35.799Z,7.48
2023-12-08T17:48:02.327Z,7.48
2023-12-08T17:50:28.804Z,7.49
2023-12-08T17:52:55.190Z,7.51
2023-12-08T17:55:21.625Z,7.50
2023-12-08T17:57:51.091Z,7.49
2023-12-08T18:00:18.292Z,7.48
2023-12-08T18:02:44.853Z,7.46
2023-12-08T18:05:14.060Z,7.47
2023-12-08T18:07:46.029Z,7.45
2023-12-08T18:10:12.575Z,7.43
2023-12-08T22:20:39.682Z,7.05
2023-12-08T23:19:18.344Z,7.13
2023-12-08T23:22:10.355Z,7.13
